Time;durP1;ratioP1;P1;durP2;ratioP2;P2;SDS_P1;SDS_P2;PMS_P1;PMS_P2;Temp;Humidity;BMP_temperature;BMP_pressure;BME280_temperature;BME280_humidity;BME280_pressure;Samples;Min_cycle;Max_cycle;Signal;HPM_P1;HPM_P2
2023/03/31 00:00:52;;;;;;;9.38;3.50;;;10.90;99.90;;;;;;4921156;28;95168;-31
2023/03/31 00:03:21;;;;;;;12.00;3.85;;;10.90;99.90;;;;;;4921174;28;93541;-31
2023/03/31 00:05:47;;;;;;;11.85;4.07;;;10.90;99.90;;;;;;4920819;28;94644;-31
2023/03/31 00:08:13;;;;;;;11.50;5.43;;;10.90;99.90;;;;;;4921063;28;94764;-33
2023/03/31 00:10:45;;;;;;;7.05;4.38;;;10.90;99.90;;;;;;4922129;28;93220;-32
2023/03/31 00:13:11;;;;;;;17.40;5.25;;;10.90;99.90;;;;;;4921351;28;93592;-33
2023/03/31 00:15:37;;;;;;;16.00;5.03;;;10.80;99.90;;;;;;4920810;28;96678;-34
2023/03/31 00:18:03;;;;;;;21.80;4.40;;;10.90;99.90;;;;;;4921486;28;94452;-33
2023/03/31 00:20:28;;;;;;;7.10;3.80;;;10.80;99.90;;;;;;4921623;28;93259;-33
2023/03/31 00:22:56;;;;;;;17.70;5.75;;;10.90;99.90;;;;;;4920957;28;93956;-29
2023/03/31 00:25:22;;;;;;;16.20;4.70;;;10.80;99.90;;;;;;4920177;28;95584;-31
2023/03/31 00:27:49;;;;;;;14.48;4.25;;;10.80;99.90;;;;;;4920612;28;94239;-30
2023/03/31 00:30:15;;;;;;;5.68;3.70;;;10.80;99.90;;;;;;4920173;28;92938;-32
2023/03/31 00:32:41;;;;;;;16.15;4.35;;;10.70;99.90;;;;;;4920998;28;93765;-35
2023/03/31 00:35:07;;;;;;;11.63;4.90;;;10.70;99.90;;;;;;4920566;28;94556;-31
2023/03/31 00:37:33;;;;;;;23.00;5.80;;;10.70;99.90;;;;;;4920300;28;95174;-32
2023/03/31 00:39:59;;;;;;;15.43;3.88;;;10.60;99.90;;;;;;4921348;28;94357;-33
2023/03/31 00:42:25;;;;;;;15.30;4.95;;;10.60;99.90;;;;;;4921385;28;92202;-30
2023/03/31 00:45:13;;;;;;;18.02;5.07;;;10.50;99.90;;;;;;4919721;28;94541;-35
2023/03/31 00:47:45;;;;;;;10.90;3.35;;;10.50;99.90;;;;;;4920180;28;94349;-35
2023/03/31 00:50:22;;;;;;;9.45;3.63;;;10.40;99.90;;;;;;4920277;28;94697;-31
2023/03/31 00:52:55;;;;;;;13.98;3.55;;;10.40;99.90;;;;;;4920380;28;94008;-31
2023/03/31 00:55:27;;;;;;;14.40;4.60;;;10.30;99.90;;;;;;4920350;28;95339;-33
2023/03/31 00:57:54;;;;;;;14.38;4.03;;;10.30;99.90;;;;;;4920362;28;94603;-33
2023/03/31 01:00:20;;;;;;;17.75;4.68;;;10.20;99.90;;;;;;4920702;28;93109;-31
2023/03/31 01:02:54;;;;;;;16.88;5.05;;;10.20;99.90;;;;;;4920518;28;94538;-32
2023/03/31 01:05:29;;;;;;;13.32;3.33;;;10.10;99.90;;;;;;4920763;28;94582;-30
2023/03/31 01:07:58;;;;;;;13.80;4.18;;;10.00;99.90;;;;;;4920209;28;94034;-34
2023/03/31 01:10:24;;;;;;;8.80;4.07;;;10.00;99.90;;;;;;4920503;28;94896;-35
2023/03/31 01:12:54;;;;;;;10.20;5.10;;;10.00;99.90;;;;;;4920357;28;93515;-32
2023/03/31 01:15:21;;;;;;;10.77;4.68;;;9.90;99.90;;;;;;4919777;28;96042;-30
2023/03/31 01:17:49;;;;;;;9.70;3.88;;;9.90;99.90;;;;;;4919895;28;96388;-31
2023/03/31 01:20:26;;;;;;;12.00;3.28;;;9.90;99.90;;;;;;4920492;28;94507;-32
2023/03/31 01:23:20;;;;;;;7.65;4.25;;;9.80;99.90;;;;;;4920096;28;93434;-35
2023/03/31 01:25:49;;;;;;;19.50;4.68;;;9.80;99.90;;;;;;4919937;28;96026;-31
2023/03/31 01:28:42;;;;;;;11.05;4.07;;;9.70;99.90;;;;;;4920212;28;93934;-31
2023/03/31 01:31:51;;;;;;;18.17;5.13;;;9.70;99.90;;;;;;4920439;28;93694;-33
2023/03/31 01:34:19;;;;;;;9.68;3.60;;;9.70;99.90;;;;;;4878864;28;91614;-30
2023/03/31 01:36:57;;;;;;;16.63;5.07;;;9.70;99.90;;;;;;4912863;28;94373;-33
2023/03/31 01:39:41;;;;;;;7.50;4.50;;;9.70;99.90;;;;;;4919951;28;93924;-35
2023/03/31 01:42:38;;;;;;;12.18;5.07;;;9.60;99.90;;;;;;4919539;28;95583;-32
2023/03/31 01:45:03;;;;;;;12.85;4.35;;;9.60;99.90;;;;;;4919847;28;92311;-33
2023/03/31 01:47:39;;;;;;;14.90;5.18;;;9.70;99.90;;;;;;4919784;28;95585;-33
2023/03/31 01:50:17;;;;;;;8.57;4.88;;;9.70;99.90;;;;;;4920159;28;93907;-32
2023/03/31 01:52:49;;;;;;;7.85;4.07;;;9.70;99.90;;;;;;4919979;28;94697;-33
2023/03/31 01:55:25;;;;;;;10.75;4.90;;;9.60;99.90;;;;;;4919730;28;93827;-32
2023/03/31 01:58:23;;;;;;;12.43;6.05;;;9.70;99.90;;;;;;4919283;28;93853;-31
2023/03/31 02:01:00;;;;;;;9.25;4.40;;;9.70;99.90;;;;;;4910969;28;94125;-33
2023/03/31 02:03:36;;;;;;;13.60;5.10;;;9.60;99.90;;;;;;4919878;28;92211;-32
2023/03/31 02:06:11;;;;;;;16.67;6.25;;;9.60;99.90;;;;;;4919381;28;92075;-35
2023/03/31 02:08:45;;;;;;;14.32;6.07;;;9.60;99.90;;;;;;4918422;28;96284;-32
2023/03/31 02:11:12;;;;;;;9.98;4.18;;;9.60;99.90;;;;;;4919626;28;94979;-35
2023/03/31 02:13:40;;;;;;;12.90;3.90;;;9.60;99.90;;;;;;4920564;28;94363;-30
2023/03/31 02:16:13;;;;;;;8.77;5.13;;;9.60;99.90;;;;;;4919808;28;93155;-30
2023/03/31 02:18:40;;;;;;;15.85;4.57;;;9.60;99.90;;;;;;4919697;28;94705;-33
2023/03/31 02:21:07;;;;;;;20.42;5.55;;;9.60;99.90;;;;;;4918029;28;93796;-30
2023/03/31 02:23:37;;;;;;;11.57;4.35;;;9.60;99.90;;;;;;4919301;28;93327;-32
2023/03/31 02:26:38;;;;;;;9.55;6.07;;;9.60;99.90;;;;;;4919413;28;94002;-32
2023/03/31 02:29:03;;;;;;;12.70;5.10;;;9.60;99.90;;;;;;4896283;28;94150;-35
2023/03/31 02:31:45;;;;;;;13.52;4.47;;;9.60;99.90;;;;;;4918620;28;93762;-31
2023/03/31 02:34:11;;;;;;;10.70;4.38;;;9.60;99.90;;;;;;4919935;28;93091;-31
2023/03/31 02:36:37;;;;;;;12.70;4.25;;;9.60;99.90;;;;;;4919026;28;94146;-32
2023/03/31 02:39:10;;;;;;;7.22;3.70;;;9.60;99.90;;;;;;4918890;28;94662;-34
2023/03/31 02:41:37;;;;;;;7.35;4.07;;;9.60;99.90;;;;;;4918728;28;94370;-32
2023/03/31 02:44:03;;;;;;;4.88;3.78;;;9.60;99.90;;;;;;4919331;28;93638;-32
2023/03/31 02:46:29;;;;;;;9.23;4.47;;;9.60;99.90;;;;;;4918704;28;94101;-34
2023/03/31 02:48:58;;;;;;;7.57;3.85;;;9.60;99.90;;;;;;4918387;28;93447;-32
2023/03/31 02:51:36;;;;;;;11.18;3.72;;;9.60;99.90;;;;;;4918653;28;94519;-36
2023/03/31 02:54:40;;;;;;;8.47;3.70;;;9.60;99.90;;;;;;4919502;28;92295;-35
2023/03/31 02:57:34;;;;;;;13.73;5.55;;;9.60;99.90;;;;;;4919143;28;93819;-30
2023/03/31 03:00:08;;;;;;;11.57;4.47;;;9.60;99.90;;;;;;4918384;28;94763;-32
2023/03/31 03:03:05;;;;;;;10.80;4.10;;;9.60;99.90;;;;;;4918726;28;95589;-33
2023/03/31 03:05:48;;;;;;;10.27;4.80;;;9.70;99.90;;;;;;4919217;28;93964;-29
2023/03/31 03:08:43;;;;;;;3.50;3.17;;;9.70;99.90;;;;;;4918074;28;93603;-33
2023/03/31 03:11:51;;;;;;;8.75;3.97;;;9.70;99.90;;;;;;4896654;28;94783;-30
2023/03/31 03:14:28;;;;;;;5.85;3.42;;;9.70;99.90;;;;;;4918417;28;94106;-30
2023/03/31 03:17:15;;;;;;;6.47;4.28;;;9.70;99.90;;;;;;4918758;28;94156;-32
2023/03/31 03:19:41;;;;;;;5.63;3.37;;;9.70;99.90;;;;;;4919266;28;91357;-32
2023/03/31 03:22:08;;;;;;;6.22;3.33;;;9.70;99.90;;;;;;4917764;28;94555;-32
2023/03/31 03:24:33;;;;;;;7.30;3.55;;;9.80;99.90;;;;;;4918158;28;94751;-33
2023/03/31 03:27:00;;;;;;;6.78;3.78;;;9.70;99.90;;;;;;4918285;28;95053;-31
2023/03/31 03:29:26;;;;;;;8.85;4.18;;;9.80;99.90;;;;;;4918078;28;94019;-35
2023/03/31 03:31:52;;;;;;;13.85;5.05;;;9.80;99.90;;;;;;4918116;28;94881;-32
2023/03/31 03:34:19;;;;;;;7.88;3.75;;;9.80;99.90;;;;;;4916919;28;95043;-32
2023/03/31 03:36:45;;;;;;;6.85;3.78;;;9.80;99.90;;;;;;4918471;28;92252;-32
2023/03/31 03:39:11;;;;;;;17.80;4.43;;;9.90;99.90;;;;;;4918844;28;92217;-34
2023/03/31 03:41:37;;;;;;;8.70;4.05;;;9.90;99.90;;;;;;4918152;28;94677;-35
2023/03/31 03:44:03;;;;;;;9.10;3.65;;;9.90;99.90;;;;;;4918655;28;94281;-33
2023/03/31 03:46:29;;;;;;;6.35;3.25;;;10.00;99.90;;;;;;4917885;28;94211;-32
2023/03/31 03:48:55;;;;;;;8.52;3.55;;;9.90;99.90;;;;;;4917748;28;92381;-33
2023/03/31 03:51:21;;;;;;;5.60;3.72;;;10.00;99.90;;;;;;4917629;28;95997;-33
2023/03/31 03:53:46;;;;;;;6.88;3.83;;;10.00;99.90;;;;;;4917776;28;95751;-32
2023/03/31 03:56:12;;;;;;;6.85;3.30;;;9.90;99.90;;;;;;4918241;28;93314;-35
2023/03/31 03:58:37;;;;;;;9.35;3.80;;;9.90;99.90;;;;;;4917077;28;93730;-33
2023/03/31 04:01:03;;;;;;;6.07;4.13;;;10.00;99.90;;;;;;4917432;28;94947;-35
2023/03/31 04:03:30;;;;;;;10.13;5.05;;;9.90;99.90;;;;;;4918355;28;94771;-33
2023/03/31 04:05:56;;;;;;;4.38;3.53;;;9.90;99.90;;;;;;4918078;28;93604;-33
2023/03/31 04:08:21;;;;;;;9.75;3.92;;;9.90;99.90;;;;;;4918763;28;93874;-35
2023/03/31 04:10:48;;;;;;;7.22;4.72;;;9.80;99.90;;;;;;4917648;28;94012;-33
2023/03/31 04:13:18;;;;;;;6.28;3.70;;;9.80;99.90;;;;;;4917282;28;94697;-32
2023/03/31 04:15:44;;;;;;;6.80;3.17;;;9.80;99.90;;;;;;4917366;28;95338;-30
2023/03/31 04:18:17;;;;;;;10.00;3.97;;;9.80;99.90;;;;;;4918232;28;93446;-34
2023/03/31 04:20:44;;;;;;;3.50;2.80;;;9.80;99.90;;;;;;4916838;28;94511;-31
2023/03/31 04:23:09;;;;;;;4.93;3.35;;;9.80;99.90;;;;;;4917421;28;94200;-35
2023/03/31 04:25:37;;;;;;;8.05;3.10;;;9.80;99.90;;;;;;4918231;28;92815;-32
2023/03/31 04:28:05;;;;;;;6.75;3.92;;;9.80;99.90;;;;;;4917482;28;92201;-34
2023/03/31 04:30:32;;;;;;;6.70;3.40;;;9.70;99.90;;;;;;4917623;28;93370;-32
2023/03/31 04:33:00;;;;;;;3.47;2.92;;;9.70;99.90;;;;;;4917441;28;94444;-33
2023/03/31 04:35:41;;;;;;;7.10;4.28;;;9.70;99.90;;;;;;4918282;28;92591;-32
2023/03/31 04:38:07;;;;;;;11.73;4.18;;;9.70;99.90;;;;;;4918519;28;92232;-31
2023/03/31 04:40:34;;;;;;;9.00;4.40;;;9.70;99.90;;;;;;4917543;28;94397;-34
2023/03/31 04:43:00;;;;;;;7.45;3.03;;;9.70;99.90;;;;;;4916879;28;94954;-32
2023/03/31 04:45:26;;;;;;;9.15;4.32;;;9.70;99.90;;;;;;4921312;28;94605;-32
2023/03/31 04:47:51;;;;;;;6.32;3.40;;;9.70;99.90;;;;;;4919884;28;92833;-34
2023/03/31 04:50:17;;;;;;;4.78;3.50;;;9.60;99.90;;;;;;4920979;28;93977;-34
2023/03/31 04:52:43;;;;;;;9.70;4.38;;;9.60;99.90;;;;;;4920910;28;95272;-31
2023/03/31 04:55:09;;;;;;;8.10;5.07;;;9.60;99.90;;;;;;4921137;28;92277;-30
2023/03/31 04:57:36;;;;;;;6.05;2.88;;;9.60;99.90;;;;;;4921131;28;93963;-32
2023/03/31 05:00:06;;;;;;;13.32;5.82;;;9.60;99.90;;;;;;4920525;28;95062;-32
2023/03/31 05:02:31;;;;;;;6.18;3.80;;;9.60;99.90;;;;;;4920419;28;94305;-33
2023/03/31 05:04:57;;;;;;;4.05;2.70;;;9.60;99.90;;;;;;4920383;28;95057;-36
2023/03/31 05:07:22;;;;;;;5.28;3.65;;;9.70;99.90;;;;;;4921073;28;92103;-30
2023/03/31 05:09:48;;;;;;;11.55;3.95;;;9.70;99.90;;;;;;4919971;28;94663;-32
2023/03/31 05:12:14;;;;;;;15.00;4.18;;;9.70;99.90;;;;;;4920996;28;94351;-34
2023/03/31 05:14:39;;;;;;;6.55;3.20;;;9.70;99.90;;;;;;4920149;28;94549;-34
2023/03/31 05:17:05;;;;;;;6.22;2.80;;;9.70;99.90;;;;;;4920416;28;93604;-35
2023/03/31 05:19:31;;;;;;;14.52;3.97;;;9.70;99.90;;;;;;4920360;28;95130;-31
2023/03/31 05:21:56;;;;;;;5.53;4.07;;;9.70;99.90;;;;;;4920027;28;94128;-33
2023/03/31 05:24:22;;;;;;;8.20;3.42;;;9.70;99.90;;;;;;4920996;28;94132;-31
2023/03/31 05:26:51;;;;;;;5.93;3.97;;;9.80;99.90;;;;;;4919504;28;92988;-30
2023/03/31 05:29:20;;;;;;;7.05;3.38;;;9.80;99.90;;;;;;4919472;28;94812;-32
2023/03/31 05:31:46;;;;;;;7.13;4.47;;;9.80;99.90;;;;;;4919189;28;95325;-34
2023/03/31 05:34:13;;;;;;;7.22;4.07;;;9.80;99.90;;;;;;4921296;28;92090;-32
2023/03/31 05:36:38;;;;;;;5.22;4.20;;;9.80;99.90;;;;;;4920491;28;92898;-34
2023/03/31 05:39:05;;;;;;;11.73;3.45;;;9.80;99.90;;;;;;4919972;28;96357;-32
2023/03/31 05:41:30;;;;;;;10.48;4.40;;;9.80;99.90;;;;;;4920107;28;95427;-30
2023/03/31 05:43:56;;;;;;;6.47;4.05;;;9.80;99.90;;;;;;4920033;28;94733;-31
2023/03/31 05:46:21;;;;;;;8.07;4.47;;;9.80;99.90;;;;;;4921054;28;93595;-35
2023/03/31 05:48:47;;;;;;;11.15;4.78;;;9.80;99.90;;;;;;4919659;28;94787;-32
2023/03/31 05:51:13;;;;;;;6.95;3.35;;;9.80;99.90;;;;;;4919792;28;94133;-37
2023/03/31 05:53:38;;;;;;;13.30;3.72;;;9.80;99.90;;;;;;4919846;28;94185;-33
2023/03/31 05:56:08;;;;;;;9.25;3.72;;;9.90;99.90;;;;;;4919494;28;93903;-36
2023/03/31 05:58:35;;;;;;;6.20;3.50;;;9.90;99.90;;;;;;4919637;28;96257;-35
2023/03/31 06:01:07;;;;;;;3.53;3.03;;;9.80;99.90;;;;;;4920036;28;92715;-35
2023/03/31 06:03:34;;;;;;;6.35;4.18;;;9.90;99.90;;;;;;4920045;28;94770;-35
2023/03/31 06:06:04;;;;;;;6.10;4.28;;;9.80;99.90;;;;;;4919480;28;92619;-31
2023/03/31 06:08:30;;;;;;;11.50;4.43;;;9.90;99.90;;;;;;4919744;28;95016;-36
2023/03/31 06:10:56;;;;;;;9.30;5.53;;;9.90;99.90;;;;;;4919794;28;95098;-32
2023/03/31 06:13:21;;;;;;;8.15;4.43;;;9.90;99.90;;;;;;4920430;28;92481;-33
2023/03/31 06:15:58;;;;;;;10.68;4.03;;;9.90;99.90;;;;;;4919719;28;94796;-30
2023/03/31 06:18:27;;;;;;;6.43;4.65;;;9.90;99.90;;;;;;4918997;28;95698;-31
2023/03/31 06:20:53;;;;;;;6.22;3.67;;;9.90;99.90;;;;;;4919153;28;94627;-35
2023/03/31 06:23:19;;;;;;;9.80;5.22;;;9.90;99.90;;;;;;4920782;28;93072;-31
2023/03/31 06:25:45;;;;;;;7.70;4.63;;;9.90;99.90;;;;;;4919568;28;94379;-31
2023/03/31 06:28:10;;;;;;;5.72;3.90;;;9.90;99.90;;;;;;4919027;28;94306;-33
2023/03/31 06:30:36;;;;;;;5.40;4.30;;;9.90;99.90;;;;;;4919794;28;94468;-35
2023/03/31 06:33:02;;;;;;;6.30;4.63;;;9.90;99.90;;;;;;4918954;28;93862;-35
2023/03/31 06:35:27;;;;;;;6.30;4.32;;;9.90;99.90;;;;;;4920082;28;91398;-32
2023/03/31 06:37:53;;;;;;;4.18;3.42;;;9.90;99.90;;;;;;4919036;28;96146;-33
2023/03/31 06:40:19;;;;;;;6.32;4.03;;;9.90;99.90;;;;;;4919647;28;95453;-32
2023/03/31 06:42:44;;;;;;;4.15;3.67;;;9.90;99.90;;;;;;4919013;28;95136;-31
2023/03/31 06:45:10;;;;;;;6.70;4.68;;;9.90;99.90;;;;;;4918521;28;93428;-32
2023/03/31 06:47:37;;;;;;;5.05;4.20;;;9.90;99.90;;;;;;4919093;28;94508;-33
2023/03/31 06:50:04;;;;;;;13.80;4.40;;;9.90;99.90;;;;;;4921401;28;94751;-34
2023/03/31 06:52:31;;;;;;;7.50;3.93;;;9.90;99.90;;;;;;4937953;28;95113;-32
2023/03/31 06:54:56;;;;;;;6.43;4.38;;;9.90;99.90;;;;;;4938619;28;92654;-34
2023/03/31 06:57:22;;;;;;;6.22;3.28;;;9.90;99.90;;;;;;4938406;28;95830;-31
2023/03/31 06:59:47;;;;;;;6.75;4.90;;;10.00;99.90;;;;;;4937860;28;94532;-33
2023/03/31 07:02:13;;;;;;;9.45;4.30;;;9.90;99.90;;;;;;4938530;28;92992;-30
2023/03/31 07:04:39;;;;;;;6.18;3.47;;;9.90;99.90;;;;;;4937630;28;92217;-32
2023/03/31 07:07:05;;;;;;;5.55;4.00;;;10.00;99.90;;;;;;4936917;28;96096;-33
2023/03/31 07:09:30;;;;;;;8.40;4.30;;;10.00;99.90;;;;;;4932418;28;96128;-32
2023/03/31 07:11:56;;;;;;;6.03;3.03;;;9.90;99.90;;;;;;4919158;28;92087;-33
2023/03/31 07:14:22;;;;;;;10.82;3.60;;;9.90;99.90;;;;;;4918837;28;93720;-34
2023/03/31 07:16:49;;;;;;;6.45;3.58;;;9.90;99.90;;;;;;4918029;28;95020;-36
2023/03/31 07:19:15;;;;;;;8.00;4.05;;;9.90;99.90;;;;;;4918985;28;94815;-34
2023/03/31 07:21:40;;;;;;;4.43;3.65;;;9.90;99.90;;;;;;4918091;28;94273;-33
2023/03/31 07:24:06;;;;;;;6.40;4.30;;;9.90;99.90;;;;;;4919186;28;92464;-32
2023/03/31 07:26:32;;;;;;;6.63;4.70;;;10.00;99.90;;;;;;4918092;28;96097;-31
2023/03/31 07:28:58;;;;;;;6.57;3.45;;;10.00;99.90;;;;;;4917621;28;94505;-33
2023/03/31 07:31:24;;;;;;;10.85;3.42;;;10.00;99.90;;;;;;4919072;28;94510;-31
2023/03/31 07:33:49;;;;;;;5.72;4.38;;;10.00;99.90;;;;;;4917658;28;94162;-35
2023/03/31 07:36:16;;;;;;;4.93;3.25;;;10.10;99.90;;;;;;4918631;28;93910;-32
2023/03/31 07:38:45;;;;;;;7.38;3.85;;;10.10;99.90;;;;;;4918181;28;94105;-33
2023/03/31 07:41:12;;;;;;;5.13;3.35;;;10.10;99.90;;;;;;4918733;28;93450;-32
2023/03/31 07:43:38;;;;;;;7.00;4.07;;;10.20;99.90;;;;;;4918004;28;95068;-32
2023/03/31 07:46:06;;;;;;;9.80;4.57;;;10.20;99.90;;;;;;4918278;28;96028;-36
2023/03/31 07:48:32;;;;;;;5.53;4.57;;;10.20;99.90;;;;;;4918993;28;93923;-32
2023/03/31 07:50:58;;;;;;;7.78;4.10;;;10.30;99.90;;;;;;4917994;28;93684;-34
2023/03/31 07:53:24;;;;;;;7.35;4.90;;;10.30;99.90;;;;;;4917759;28;93739;-33
2023/03/31 07:55:49;;;;;;;6.18;3.42;;;10.30;99.90;;;;;;4917289;28;96872;-33
2023/03/31 07:58:15;;;;;;;7.63;3.72;;;10.30;99.90;;;;;;4917639;28;95077;-31
2023/03/31 08:00:41;;;;;;;10.50;4.18;;;10.40;99.90;;;;;;4918354;28;93608;-35
2023/03/31 08:03:06;;;;;;;5.13;3.88;;;10.40;99.90;;;;;;4917662;28;92519;-34
2023/03/31 08:05:32;;;;;;;5.93;4.45;;;10.40;99.90;;;;;;4918174;28;94251;-30
2023/03/31 08:07:58;;;;;;;9.77;4.45;;;10.50;99.90;;;;;;4917302;28;94715;-32
2023/03/31 08:10:25;;;;;;;5.85;4.10;;;10.50;99.90;;;;;;4918155;28;92161;-33
2023/03/31 08:12:51;;;;;;;6.27;4.07;;;10.60;99.90;;;;;;4918962;28;93351;-32
2023/03/31 08:15:17;;;;;;;9.38;3.80;;;10.70;99.90;;;;;;4915897;28;94675;-30
2023/03/31 08:17:43;;;;;;;8.13;4.93;;;10.70;99.90;;;;;;4922246;28;94471;-34
2023/03/31 08:20:09;;;;;;;6.07;4.32;;;10.70;99.90;;;;;;4918150;28;94316;-33
2023/03/31 08:22:36;;;;;;;8.50;3.78;;;10.80;99.90;;;;;;4918532;28;93849;-31
2023/03/31 08:25:04;;;;;;;8.00;4.25;;;10.70;99.90;;;;;;4918002;28;94530;-34
2023/03/31 08:27:33;;;;;;;4.95;3.88;;;10.70;99.90;;;;;;4918779;28;96091;-35
2023/03/31 08:30:02;;;;;;;6.05;5.13;;;10.80;99.90;;;;;;4921925;28;93882;-30
2023/03/31 08:32:27;;;;;;;6.20;4.03;;;10.80;99.90;;;;;;4938759;28;93384;-34
2023/03/31 08:34:53;;;;;;;4.97;3.53;;;10.70;99.90;;;;;;4937629;28;93771;-33
2023/03/31 08:37:19;;;;;;;4.20;3.60;;;10.70;99.90;;;;;;4938495;28;94661;-31
2023/03/31 08:39:44;;;;;;;5.18;4.00;;;10.80;99.90;;;;;;4937877;28;94808;-32
2023/03/31 08:42:35;;;;;;;6.75;3.90;;;10.70;99.90;;;;;;4938927;28;94475;-35
2023/03/31 08:45:05;;;;;;;11.38;5.50;;;10.70;99.90;;;;;;4937505;28;96434;-32
2023/03/31 08:47:33;;;;;;;15.77;4.32;;;10.70;99.90;;;;;;4937735;28;95505;-32
2023/03/31 08:50:04;;;;;;;;;;;10.70;99.90;;;;;;4938734;28;94424;-36
2023/03/31 08:52:35;;;;;;;4.78;4.38;;;10.70;99.90;;;;;;4938154;28;93082;-33
2023/03/31 08:55:06;;;;;;;5.97;3.78;;;10.70;99.90;;;;;;4937711;28;94586;-32
2023/03/31 08:57:50;;;;;;;4.55;3.75;;;10.70;99.90;;;;;;4938325;28;94121;-32
2023/03/31 09:00:17;;;;;;;4.43;3.78;;;10.70;99.90;;;;;;4936889;28;93858;-35
2023/03/31 09:02:54;;;;;;;7.78;3.95;;;10.60;99.90;;;;;;4937734;28;93993;-32
2023/03/31 09:05:34;;;;;;;5.47;3.35;;;10.60;99.90;;;;;;4937381;28;94219;-32
2023/03/31 09:08:38;;;;;;;8.05;3.90;;;10.60;99.90;;;;;;4937803;28;94408;-30
2023/03/31 09:11:39;;;;;;;9.20;3.78;;;10.60;99.90;;;;;;4937298;28;94212;-34
2023/03/31 09:14:48;;;;;;;3.20;2.70;;;10.70;99.90;;;;;;4896342;28;93378;-31
2023/03/31 09:17:20;;;;;;;6.22;3.70;;;10.70;99.90;;;;;;4937431;28;94905;-36
2023/03/31 09:19:57;;;;;;;6.43;4.80;;;10.70;99.90;;;;;;4937185;28;95134;-33
2023/03/31 09:22:32;;;;;;;12.00;4.03;;;10.70;99.90;;;;;;4936899;28;94216;-34
2023/03/31 09:25:14;;;;;;;6.35;3.13;;;10.70;99.90;;;;;;4937688;28;92089;-31
2023/03/31 09:27:42;;;;;;;4.22;2.97;;;10.70;99.90;;;;;;4937121;28;94900;-34
2023/03/31 09:30:21;;;;;;;8.65;3.80;;;10.70;99.90;;;;;;4937519;28;94067;-30
2023/03/31 09:32:51;;;;;;;5.15;2.83;;;10.70;99.90;;;;;;4937962;28;94419;-32
2023/03/31 09:35:24;;;;;;;3.55;2.45;;;10.50;99.90;;;;;;4937401;28;92621;-35
2023/03/31 09:37:51;;;;;;;4.75;2.83;;;10.60;99.90;;;;;;4935505;28;95627;-33
2023/03/31 09:40:25;;;;;;;4.63;2.50;;;10.70;99.90;;;;;;4937674;28;95413;-33
2023/03/31 09:42:58;;;;;;;9.13;3.03;;;10.80;99.90;;;;;;4936992;28;92201;-33
2023/03/31 09:45:24;;;;;;;5.93;1.85;;;11.00;99.90;;;;;;4938753;28;94049;-31
2023/03/31 09:47:52;;;;;;;3.47;2.63;;;11.10;99.90;;;;;;4938095;28;94702;-31
2023/03/31 09:50:19;;;;;;;8.52;2.58;;;11.10;99.90;;;;;;4938960;28;95212;-32
2023/03/31 09:53:04;;;;;;;8.65;2.80;;;11.10;99.90;;;;;;4938917;28;94667;-33
2023/03/31 09:55:51;;;;;;;4.13;2.13;;;11.20;99.90;;;;;;4939810;28;93841;-33
2023/03/31 09:58:17;;;;;;;3.15;1.90;;;11.10;99.90;;;;;;4938397;28;94803;-32
2023/03/31 10:01:05;;;;;;;1.90;1.75;;;11.00;99.90;;;;;;4939509;28;93037;-33
2023/03/31 10:03:35;;;;;;;5.85;2.72;;;11.00;99.90;;;;;;4939273;28;94890;-32
2023/03/31 10:06:07;;;;;;;4.00;2.08;;;11.10;99.90;;;;;;4938982;28;93663;-33
2023/03/31 10:08:49;;;;;;;6.88;2.83;;;11.20;99.90;;;;;;4938902;28;94343;-31
2023/03/31 10:11:15;;;;;;;6.65;2.65;;;11.20;99.90;;;;;;4953723;28;94259;-33
2023/03/31 10:14:03;;;;;;;4.07;2.45;;;11.20;99.90;;;;;;4938602;28;94067;-35
2023/03/31 10:16:41;;;;;;;7.18;3.75;;;11.20;99.90;;;;;;4938613;28;93214;-34
2023/03/31 10:19:28;;;;;;;2.97;2.60;;;11.30;99.90;;;;;;4938818;28;94630;-31
2023/03/31 10:21:59;;;;;;;3.88;2.65;;;11.40;99.90;;;;;;4938836;28;94537;-34
2023/03/31 10:24:34;;;;;;;5.80;2.17;;;11.40;99.90;;;;;;4939291;28;93129;-30
2023/03/31 10:27:00;;;;;;;6.18;2.85;;;11.40;99.90;;;;;;4939362;28;94519;-31
2023/03/31 10:29:31;;;;;;;6.18;2.35;;;11.50;99.90;;;;;;4937861;28;96124;-33
2023/03/31 10:32:08;;;;;;;1.60;1.20;;;11.60;99.90;;;;;;4937807;28;93303;-31
2023/03/31 10:34:39;;;;;;;1.75;1.65;;;11.60;99.90;;;;;;4938892;28;93156;-32
2023/03/31 10:37:06;;;;;;;3.78;2.20;;;11.70;99.90;;;;;;4938228;28;94448;-34
2023/03/31 10:39:32;;;;;;;4.40;1.65;;;11.70;99.90;;;;;;4938937;28;94568;-34
2023/03/31 10:41:59;;;;;;;2.28;1.40;;;11.90;99.90;;;;;;4937855;28;93916;-31
2023/03/31 10:44:33;;;;;;;2.40;1.73;;;12.00;99.90;;;;;;4938373;28;92536;-34
2023/03/31 10:47:14;;;;;;;1.42;1.33;;;12.20;99.90;;;;;;4938938;28;91740;-32
2023/03/31 10:49:42;;;;;;;4.63;1.95;;;12.40;99.90;;;;;;4938267;28;94863;-33
2023/03/31 10:52:21;;;;;;;2.58;1.60;;;12.40;99.90;;;;;;4938048;28;94126;-32
2023/03/31 10:54:48;;;;;;;1.58;1.45;;;12.50;99.90;;;;;;4938308;28;95219;-34
2023/03/31 10:57:16;;;;;;;1.95;1.50;;;12.40;99.90;;;;;;4938752;28;93410;-30
2023/03/31 11:00:33;;;;;;;6.00;2.72;;;12.40;99.90;;;;;;4937661;28;95001;-35
2023/03/31 11:03:22;;;;;;;5.40;2.50;;;12.40;99.90;;;;;;4914530;28;94325;-32
2023/03/31 11:06:02;;;;;;;2.47;2.28;;;12.30;99.90;;;;;;4938185;28;94615;-32
2023/03/31 11:08:36;;;;;;;3.38;1.95;;;12.30;99.90;;;;;;4938549;28;94143;-30
2023/03/31 11:11:14;;;;;;;2.25;2.05;;;12.30;99.90;;;;;;4937342;28;95295;-32
2023/03/31 11:14:04;;;;;;;3.03;1.63;;;12.30;99.90;;;;;;4937904;28;93130;-35
2023/03/31 11:16:40;;;;;;;2.42;2.15;;;12.30;99.90;;;;;;4938355;28;94546;-31
2023/03/31 11:19:40;;;;;;;3.85;2.83;;;12.30;99.90;;;;;;4938078;28;93054;-35
2023/03/31 11:22:51;;;;;;;7.50;2.47;;;12.20;99.90;;;;;;4936812;28;95920;-31
2023/03/31 11:25:48;;;;;;;4.25;2.78;;;12.30;99.90;;;;;;4896157;28;96434;-32
2023/03/31 11:28:26;;;;;;;2.58;1.40;;;12.30;99.90;;;;;;4896771;28;93124;-34
2023/03/31 11:30:57;;;;;;;3.58;1.88;;;12.50;99.90;;;;;;4928550;28;94228;-29
2023/03/31 11:33:25;;;;;;;3.75;1.73;;;12.50;99.90;;;;;;4937520;28;94858;-32
2023/03/31 11:36:16;;;;;;;3.33;1.95;;;12.50;99.90;;;;;;4937306;28;96132;-31
2023/03/31 11:39:02;;;;;;;2.08;1.48;;;12.60;99.90;;;;;;4938775;28;94274;-30
2023/03/31 11:41:45;;;;;;;2.58;2.33;;;12.60;99.90;;;;;;4938176;28;91408;-32
2023/03/31 11:44:14;;;;;;;1.95;1.80;;;12.50;99.90;;;;;;4938244;28;94728;-31
2023/03/31 11:46:42;;;;;;;;;;;12.50;99.90;;;;;;4937722;28;93981;-36
2023/03/31 11:49:20;;;;;;;5.35;2.20;;;12.50;99.90;;;;;;4938847;28;96209;-30
2023/03/31 11:52:00;;;;;;;3.33;2.17;;;12.40;99.90;;;;;;4936977;28;93234;-32
2023/03/31 11:54:39;;;;;;;4.40;2.13;;;12.40;99.90;;;;;;4937460;28;94362;-31
2023/03/31 12:00:47;;;;;;;11.48;2.83;;;12.60;99.90;;;;;;4935549;28;94701;-31
2023/03/31 12:03:27;;;;;;;4.40;2.15;;;12.70;99.90;;;;;;4937909;28;93154;-33
2023/03/31 12:06:01;;;;;;;4.13;2.38;;;12.70;99.90;;;;;;4937498;28;94758;-31
2023/03/31 12:08:38;;;;;;;4.97;3.38;;;12.80;99.90;;;;;;4938081;28;95639;-33
2023/03/31 12:11:18;;;;;;;4.63;3.27;;;12.80;99.90;;;;;;4937570;28;94670;-32
2023/03/31 12:14:07;;;;;;;8.25;3.30;;;12.90;99.90;;;;;;4937128;28;94567;-30
2023/03/31 12:16:40;;;;;;;7.55;3.45;;;12.70;99.90;;;;;;4908054;28;94841;-31
2023/03/31 12:19:27;;;;;;;9.65;3.03;;;12.60;99.90;;;;;;4937132;28;95649;-35
2023/03/31 12:21:59;;;;;;;3.63;3.33;;;12.60;99.90;;;;;;4937198;28;93233;-31
2023/03/31 12:24:25;;;;;;;3.88;2.95;;;12.70;99.90;;;;;;4937139;28;94682;-35
2023/03/31 12:27:29;;;;;;;5.95;2.90;;;12.60;99.90;;;;;;4934839;28;94669;-34
2023/03/31 12:30:01;;;;;;;7.80;3.13;;;12.60;99.90;;;;;;4927940;28;94731;-32
2023/03/31 12:32:35;;;;;;;2.88;2.65;;;12.60;99.90;;;;;;4934180;28;92742;-30
2023/03/31 12:35:26;;;;;;;4.47;2.72;;;12.70;99.90;;;;;;4935368;28;92284;-32
2023/03/31 12:38:00;;;;;;;7.90;3.15;;;12.50;99.90;;;;;;4934619;28;94867;-33
2023/03/31 12:40:35;;;;;;;8.85;4.00;;;12.60;99.90;;;;;;4935207;28;94909;-33
2023/03/31 12:43:13;;;;;;;4.20;3.20;;;12.80;99.90;;;;;;4934913;28;94502;-32
2023/03/31 12:46:20;;;;;;;10.77;3.60;;;13.00;99.90;;;;;;4934959;28;93032;-34
2023/03/31 12:49:11;;;;;;;6.55;3.35;;;13.30;99.90;;;;;;4933882;28;95660;-35
2023/03/31 12:52:00;;;;;;;3.58;2.58;;;13.40;99.90;;;;;;4934498;28;95111;-30
2023/03/31 12:54:40;;;;;;;6.85;2.65;;;13.50;99.90;;;;;;4935326;28;93098;-33
2023/03/31 12:57:15;;;;;;;9.20;4.00;;;13.60;99.90;;;;;;4935123;28;92129;-33
2023/03/31 12:59:43;;;;;;;6.55;3.20;;;13.50;99.90;;;;;;4933618;28;94858;-33
2023/03/31 13:02:08;;;;;;;4.50;3.80;;;13.50;99.90;;;;;;4934926;28;93595;-32
2023/03/31 13:04:35;;;;;;;9.30;3.33;;;13.50;99.90;;;;;;4935553;28;93810;-32
2023/03/31 13:07:02;;;;;;;4.68;3.00;;;13.60;99.90;;;;;;4936776;28;93124;-33
2023/03/31 13:09:40;;;;;;;5.00;3.20;;;13.60;99.90;;;;;;4937055;28;95732;-31
2023/03/31 13:12:15;;;;;;;9.25;3.42;;;13.60;99.90;;;;;;4937856;28;95094;-35
2023/03/31 13:14:44;;;;;;;7.18;4.22;;;13.50;99.90;;;;;;4938809;28;92969;-35
2023/03/31 13:17:31;;;;;;;7.82;4.00;;;13.50;99.90;;;;;;4938192;28;94358;-34
2023/03/31 13:20:15;;;;;;;15.03;4.13;;;13.50;99.90;;;;;;4937447;28;93594;-34